Winona Lake, IN (46590)

10:22 AM EST on February 12, 2016 (GMT -0500)
Winona Lake | | Change Station
CLOSE
Current Station
Personal Weather Station
Location: Winona Lake, IN
Elevation: 820 ft
Nearby Weather Stations

Elev 820 ft 41.22 °N, 85.82 °W | Updated 18 minutes ago

Overcast
Overcast
21.3 °F
Feels Like 12 °F
N
8.0
Wind Variable Wind from West
Gusts 14.0 mph

Today
High -- | Low -- °F
--% Chance of Precip.
Yesterday
High -- | Low -- °F
Precip. -- in
Pressure 30.11 in
Visibility 10.0 miles
Clouds Overcast 6500 ft
Windchill 12 °F
Dew Point 15 °F
Humidity 77%
Rainfall 0.00 in
Snow Depth Not available.
7:42 AM 6:13 PM
Waxing Crescent, 21% visible
METAR KASW 121515Z AUTO 26012G15KT 10SM OVC065 M05/M10 A3011 RMK AO2
Pressure 30.11 in
Visibility 10.0 miles
Clouds Overcast 6500 ft
Windchill 12 °F
Dew Point 15 °F
Humidity 77%
Rainfall 0.00 in
Snow Depth Not available.
7:42 AM 6:13 PM
Waxing Crescent, 21% visible
METAR KASW 121515Z AUTO 26012G15KT 10SM OVC065 M05/M10 A3011 RMK AO2

10-Day Weather Forecast

Almanac

Astronomy

Feb. 12, 2016 Rise Set
Actual Time
Civil Twilight
Nautical Twilight
Astronomical Twilight
Moon
Length of Visible Light
Length of Day
Tomorrow will be .
, % of the Moon is Illuminated

Today's Extremes

State Highs State Lows

Community

WunderPhotos

Upload Photos

1,892,329 photos uploaded!

WunderBlog® & News

Nearby

Air Quality

  Air Quality AQ Index Pollutant
Not available.

Snow Depth

Station Depth Elevation

Earthquake Activity

City Distance Mag. Time & Date
Minimum magnitude displayed is 2.5.

Coastal Water Temperatures

Place Temperature

Stations

Nearby Weather Stations

Station Location Temp. Windchill Dew Point Humidity Wind Precip. Elev Updated Type
                   

Watches & Warnings

There are currently no watches in effect.